createdAt,value
2023-03-27T00:00:38.492Z,1265.5385
2023-03-27T00:01:40.105Z,1253.0769
2023-03-27T00:02:41.958Z,1257.8462
2023-03-27T00:03:43.525Z,1260.5385
2023-03-27T00:04:45.062Z,1263.6154
2023-03-27T00:05:46.733Z,1263.0000
2023-03-27T00:06:48.357Z,1266.0000
2023-03-27T00:07:50.016Z,1262.5385
2023-03-27T00:08:51.657Z,1266.1538
2023-03-27T00:09:53.327Z,1269.3077
2023-03-27T00:10:55.178Z,1264.8462
2023-03-27T00:11:56.617Z,1266.8462
2023-03-27T00:12:58.255Z,1274.3077
2023-03-27T00:13:59.926Z,1262.0000
2023-03-27T00:15:01.537Z,1267.8462
2023-03-27T00:16:03.254Z,1265.0769
2023-03-27T00:17:04.883Z,1262.0769
2023-03-27T00:18:06.552Z,1259.0000
2023-03-27T00:19:08.150Z,1265.0000
2023-03-27T00:20:09.833Z,1260.0000
2023-03-27T00:21:11.513Z,1258.7693
2023-03-27T00:22:13.129Z,1263.8462
2023-03-27T00:23:14.767Z,1262.6154
2023-03-27T00:24:16.435Z,1264.2307
2023-03-27T00:25:18.063Z,1261.3077
2023-03-27T00:26:19.758Z,1258.4615
2023-03-27T00:27:21.371Z,1255.4615
2023-03-27T00:28:23.030Z,1259.6154
2023-03-27T00:29:24.672Z,1262.5385
2023-03-27T00:30:26.325Z,1256.0000
2023-03-27T00:31:28.079Z,1256.1538
2023-03-27T00:32:29.653Z,1260.3077
2023-03-27T00:33:31.300Z,1260.9231
2023-03-27T00:34:32.924Z,1249.0000
2023-03-27T00:35:34.672Z,1256.7693
2023-03-27T00:36:36.248Z,1254.0769
2023-03-27T00:37:37.897Z,1255.0000
2023-03-27T00:38:39.740Z,1260.3077
2023-03-27T00:39:41.222Z,1254.8462
2023-03-27T00:40:42.855Z,1256.9231
2023-03-27T00:41:44.531Z,1259.5385
2023-03-27T00:42:46.152Z,1244.5385
2023-03-27T00:43:47.816Z,1256.3846
2023-03-27T00:44:49.442Z,1250.4615
2023-03-27T00:45:51.126Z,1254.4615
2023-03-27T00:46:52.803Z,1246.8462
2023-03-27T00:47:54.428Z,1253.0769
2023-03-27T00:48:56.047Z,1254.7693
2023-03-27T00:49:57.728Z,1249.4615
2023-03-27T00:50:59.356Z,1254.0000
2023-03-27T00:52:01.058Z,1243.5385
2023-03-27T00:53:02.657Z,1246.8462
2023-03-27T00:54:04.329Z,1248.1538
2023-03-27T00:55:05.985Z,1247.7693
2023-03-27T00:56:07.650Z,1236.0000
2023-03-27T00:57:09.333Z,1243.0000
2023-03-27T00:58:10.946Z,1236.4615
2023-03-27T00:59:12.606Z,1233.2307
2023-03-27T01:00:14.282Z,1236.4615
2023-03-27T01:01:15.904Z,1235.8462
2023-03-27T01:02:17.596Z,1247.3846
2023-03-27T01:03:19.275Z,1240.7693
2023-03-27T01:04:20.849Z,1235.4615
2023-03-27T01:05:22.487Z,1237.0000
2023-03-27T01:06:24.149Z,1234.0000
2023-03-27T01:07:25.788Z,1234.8462
2023-03-27T01:08:27.451Z,1233.1538
2023-03-27T01:09:29.084Z,1228.3077
2023-03-27T01:10:30.753Z,1229.0000
2023-03-27T01:11:32.386Z,1244.7693
2023-03-27T01:12:34.069Z,1237.0769
2023-03-27T01:13:35.693Z,1234.0000
2023-03-27T01:14:37.362Z,1225.6154
2023-03-27T01:15:39.013Z,1224.8462
2023-03-27T01:16:40.663Z,1226.4615
2023-03-27T01:17:42.358Z,1222.9231
2023-03-27T01:18:43.946Z,1224.8462
2023-03-27T01:19:45.594Z,1224.4615
2023-03-27T01:20:47.345Z,1233.0769
2023-03-27T01:21:48.904Z,1218.4615
2023-03-27T01:22:50.599Z,1218.3077
2023-03-27T01:23:59.354Z,1225.7693
2023-03-27T01:24:53.889Z,1225.1538
2023-03-27T01:25:55.500Z,1219.9231
2023-03-27T01:26:57.168Z,1218.5385
2023-03-27T01:27:58.832Z,1223.4615
2023-03-27T01:29:00.477Z,1214.7693
2023-03-27T01:30:02.109Z,1215.3846
2023-03-27T01:31:03.798Z,1212.6923
2023-03-27T01:32:05.414Z,1216.0769
2023-03-27T01:33:07.174Z,1216.1538
2023-03-27T01:34:08.718Z,1214.8462
2023-03-27T01:35:10.398Z,1219.5385
2023-03-27T01:36:12.042Z,1214.3846
2023-03-27T01:37:13.706Z,1220.8462
2023-03-27T01:38:15.355Z,1222.9231
2023-03-27T01:39:17.013Z,1220.6923
2023-03-27T01:40:18.639Z,1213.6154
2023-03-27T01:41:20.316Z,1212.3077
2023-03-27T01:42:21.948Z,1215.6154
2023-03-27T01:43:23.647Z,1217.3846
2023-03-27T01:44:25.247Z,1215.7693
2023-03-27T01:45:26.919Z,1210.6154
2023-03-27T01:46:28.587Z,1212.9231
2023-03-27T01:47:30.237Z,1213.4615
2023-03-27T01:48:31.929Z,1219.8462
2023-03-27T01:49:33.531Z,1214.6154
2023-03-27T01:50:35.152Z,1201.6923
2023-03-27T01:51:36.839Z,1200.6154
2023-03-27T01:52:38.488Z,1198.1538
2023-03-27T01:53:40.294Z,1199.7693
2023-03-27T01:54:41.782Z,1204.6923
2023-03-27T01:55:43.441Z,1201.6923
2023-03-27T01:56:45.091Z,1205.0769
2023-03-27T01:57:48.961Z,1202.8462
2023-03-27T01:58:48.405Z,1200.4615
2023-03-27T01:59:50.061Z,1203.2307
2023-03-27T02:01:04.110Z,1202.0769
2023-03-27T02:01:53.357Z,1196.3846
2023-03-27T02:02:55.009Z,1211.7693
2023-03-27T02:03:56.701Z,1197.3846
2023-03-27T02:04:58.322Z,1194.0000
2023-03-27T02:05:59.962Z,1198.4615
2023-03-27T02:07:01.597Z,1195.3846
2023-03-27T02:08:03.282Z,1196.8462
2023-03-27T02:09:04.911Z,1194.9231
2023-03-27T02:10:06.581Z,1188.6923
2023-03-27T02:11:08.284Z,1199.7693
2023-03-27T02:12:09.946Z,1200.9231
2023-03-27T02:13:11.584Z,1201.8462
2023-03-27T02:14:13.278Z,1199.0000
2023-03-27T02:15:23.659Z,1194.6923
2023-03-27T02:16:16.641Z,1194.9231
2023-03-27T02:17:18.201Z,1194.0769
2023-03-27T02:18:19.881Z,1192.3846
2023-03-27T02:19:21.537Z,1194.1538
2023-03-27T02:20:23.186Z,1189.4615
2023-03-27T02:21:24.846Z,1189.7693
2023-03-27T02:22:38.137Z,1185.3077
2023-03-27T02:23:28.132Z,1193.1538
2023-03-27T02:24:29.867Z,1187.1538
2023-03-27T02:25:31.457Z,1190.0000
2023-03-27T02:26:33.125Z,1186.0769
2023-03-27T02:27:34.743Z,1191.3077
2023-03-27T02:28:36.415Z,1183.8462
2023-03-27T02:29:38.080Z,1179.1538
2023-03-27T02:30:39.735Z,1179.0769
2023-03-27T02:31:41.430Z,1173.1538
2023-03-27T02:32:43.163Z,1181.8462
2023-03-27T02:33:44.681Z,1183.6154
2023-03-27T02:34:46.338Z,1181.1538
2023-03-27T02:35:48.022Z,1186.8462
2023-03-27T02:36:49.646Z,1192.0769
2023-03-27T02:37:51.314Z,1177.4615
2023-03-27T02:38:52.950Z,1177.1538
2023-03-27T02:39:54.638Z,1181.7693
2023-03-27T02:40:56.396Z,1185.8462
2023-03-27T02:41:57.911Z,1176.0769
2023-03-27T02:42:59.577Z,1180.2307
2023-03-27T02:44:01.233Z,1173.4615
2023-03-27T02:45:02.891Z,1175.0000
2023-03-27T02:46:04.625Z,1177.4615
2023-03-27T02:47:06.181Z,1178.0000
2023-03-27T02:48:07.900Z,1179.7693
2023-03-27T02:49:09.484Z,1174.4615
2023-03-27T02:50:11.227Z,1171.2307
2023-03-27T02:51:12.803Z,1174.8462
2023-03-27T02:52:14.464Z,1173.5385
2023-03-27T02:53:16.104Z,1177.6154
2023-03-27T02:54:17.766Z,1173.4615
2023-03-27T02:55:19.426Z,1173.2307
2023-03-27T02:56:21.097Z,1176.2307
2023-03-27T02:57:24.967Z,1176.9231
2023-03-27T02:58:24.391Z,1168.7693
2023-03-27T02:59:26.016Z,1166.0769
2023-03-27T03:00:27.712Z,1172.6154
2023-03-27T03:01:29.365Z,1181.4615
2023-03-27T03:02:31.065Z,1170.2307
2023-03-27T03:03:32.646Z,1173.6154
2023-03-27T03:04:34.307Z,1175.9231
2023-03-27T03:05:35.961Z,1169.5385
2023-03-27T03:06:37.608Z,1167.5385
2023-03-27T03:07:39.248Z,1166.7693
2023-03-27T03:08:40.919Z,1165.0769
2023-03-27T03:09:42.555Z,1175.6923
2023-03-27T03:10:44.241Z,1164.3846
2023-03-27T03:11:45.849Z,1160.3846
2023-03-27T03:12:47.515Z,1163.1538
2023-03-27T03:13:49.147Z,1158.4615
2023-03-27T03:14:50.831Z,1164.6923
2023-03-27T03:15:52.507Z,1165.6923
2023-03-27T03:16:54.177Z,1156.1538
2023-03-27T03:17:55.780Z,1167.9231
2023-03-27T03:18:57.451Z,1173.9231
2023-03-27T03:19:59.069Z,1177.2307
2023-03-27T03:21:00.782Z,1172.4615
2023-03-27T03:22:02.386Z,1168.8462
2023-03-27T03:23:04.056Z,1161.7693
2023-03-27T03:24:05.696Z,1160.4615
2023-03-27T03:25:07.370Z,1177.2307
2023-03-27T03:26:09.022Z,1177.6923
2023-03-27T03:27:10.693Z,1170.6923
2023-03-27T03:28:12.303Z,1168.7693
2023-03-27T03:29:13.972Z,1173.1538
2023-03-27T03:30:16.985Z,1156.4615
2023-03-27T03:31:17.362Z,1157.0769
2023-03-27T03:32:18.916Z,1150.8462
2023-03-27T03:33:20.582Z,1155.1538
2023-03-27T03:34:22.203Z,1159.2000
2023-03-27T03:35:23.898Z,1162.3077
2023-03-27T03:36:25.526Z,1160.3846
2023-03-27T03:37:27.178Z,1145.5385
2023-03-27T03:38:28.815Z,1150.6154
2023-03-27T03:39:30.490Z,1148.6154
2023-03-27T03:40:32.112Z,1148.6923
2023-03-27T03:41:33.804Z,1151.8462
2023-03-27T03:42:35.422Z,1148.5385
2023-03-27T03:43:37.086Z,1145.6154
2023-03-27T03:44:38.741Z,1151.4615
2023-03-27T03:45:40.395Z,1146.3077
2023-03-27T03:46:42.041Z,1146.3846
2023-03-27T03:47:43.725Z,1153.5385
2023-03-27T03:48:45.317Z,1147.6154
2023-03-27T03:49:46.993Z,1148.5385
2023-03-27T03:50:48.623Z,1153.8462
2023-03-27T03:52:03.775Z,1144.9231
2023-03-27T03:52:51.921Z,1142.9231
2023-03-27T03:53:53.586Z,1141.0000
2023-03-27T03:54:55.239Z,1147.4615
2023-03-27T03:55:56.883Z,1143.0769
2023-03-27T03:56:58.557Z,1151.9231
2023-03-27T03:58:00.192Z,1142.0769
2023-03-27T03:59:01.846Z,1139.0769
2023-03-27T04:00:03.504Z,1128.7693
2023-03-27T04:01:05.126Z,1131.2307
2023-03-27T04:02:06.837Z,1136.9231
2023-03-27T04:03:08.640Z,1141.2307
2023-03-27T04:04:10.104Z,1136.3846
2023-03-27T04:05:11.745Z,1138.9231
2023-03-27T04:06:13.419Z,1135.3846
2023-03-27T04:07:15.060Z,1131.5385
2023-03-27T04:08:16.715Z,1137.0000
2023-03-27T04:09:18.341Z,1140.6154
2023-03-27T04:10:20.048Z,1139.3846
2023-03-27T04:11:21.660Z,1134.6923
2023-03-27T04:12:23.353Z,1133.6154
2023-03-27T04:13:24.987Z,1136.8462
2023-03-27T04:14:26.622Z,1137.8462
2023-03-27T04:15:28.266Z,1137.4615
2023-03-27T04:16:29.994Z,1137.3077
2023-03-27T04:17:31.622Z,1135.2307
2023-03-27T04:18:33.367Z,1141.0000
2023-03-27T04:19:34.888Z,1141.3846
2023-03-27T04:20:36.537Z,1141.4615
2023-03-27T04:21:38.158Z,1135.0000
2023-03-27T04:22:39.847Z,1138.0000
2023-03-27T04:23:41.463Z,1163.2307
2023-03-27T04:24:43.140Z,1159.8462
2023-03-27T04:25:44.810Z,1173.8462
2023-03-27T04:26:46.441Z,1187.9231
2023-03-27T04:27:48.088Z,1203.8462
2023-03-27T04:28:49.730Z,1215.6923
2023-03-27T04:29:51.369Z,1201.4615
2023-03-27T04:30:53.038Z,1191.7693
2023-03-27T04:31:54.681Z,1206.0769
2023-03-27T04:32:56.389Z,1200.0769
2023-03-27T04:33:57.977Z,1196.6923
2023-03-27T04:34:59.651Z,1198.6154
2023-03-27T04:36:06.360Z,1218.0769
2023-03-27T04:37:02.958Z,557.2308
2023-03-27T04:38:04.616Z,454.1538
2023-03-27T04:39:06.260Z,592.7692
2023-03-27T04:40:07.892Z,679.7692
2023-03-27T04:41:09.545Z,757.5385
2023-03-27T04:42:11.178Z,784.4615
2023-03-27T04:43:12.887Z,805.8461
2023-03-27T04:44:14.493Z,859.6154
2023-03-27T04:45:16.190Z,915.3846
2023-03-27T04:46:17.825Z,951.6154
2023-03-27T04:47:19.476Z,994.7692
2023-03-27T04:48:21.140Z,1024.9231
2023-03-27T04:49:22.780Z,1021.7692
2023-03-27T04:50:24.403Z,1005.3077
2023-03-27T04:51:26.089Z,1002.0769
2023-03-27T04:52:27.725Z,963.8461
2023-03-27T04:53:29.556Z,789.0000
2023-03-27T04:54:31.055Z,857.6923
2023-03-27T04:55:32.680Z,978.1539
2023-03-27T04:56:34.363Z,1083.7693
2023-03-27T04:57:35.987Z,806.5385
2023-03-27T04:58:37.945Z,682.6154
2023-03-27T04:59:39.301Z,655.9231
2023-03-27T05:00:40.987Z,684.3846
2023-03-27T05:01:42.606Z,412.9231
2023-03-27T05:02:44.270Z,423.3077
2023-03-27T05:03:45.976Z,442.3846
2023-03-27T05:04:47.551Z,436.0769
2023-03-27T05:05:49.190Z,400.0000
2023-03-27T05:06:50.872Z,400.0000
2023-03-27T05:07:52.580Z,429.3077
2023-03-27T05:08:54.177Z,448.2308
2023-03-27T05:09:55.777Z,472.1538
2023-03-27T05:10:57.712Z,490.9231
2023-03-27T05:11:59.098Z,516.1539
2023-03-27T05:13:00.769Z,545.0000
2023-03-27T05:14:02.426Z,566.6154
2023-03-27T05:15:04.089Z,590.6154
2023-03-27T05:16:05.720Z,596.1539
2023-03-27T05:17:07.374Z,599.9231
2023-03-27T05:18:09.322Z,632.6154
2023-03-27T05:19:10.767Z,639.9231
2023-03-27T05:20:12.319Z,637.0769
2023-03-27T05:21:13.974Z,627.7692
2023-03-27T05:22:15.626Z,626.1539
2023-03-27T05:23:17.288Z,638.1539
2023-03-27T05:24:18.931Z,668.3077
2023-03-27T05:25:20.586Z,859.0769
2023-03-27T05:26:22.215Z,1088.6923
2023-03-27T05:27:23.923Z,1097.5385
2023-03-27T05:28:25.525Z,1106.8462
2023-03-27T05:29:27.232Z,1010.6154
2023-03-27T05:30:28.927Z,975.7692
2023-03-27T05:31:30.573Z,917.5385
2023-03-27T05:32:32.170Z,884.8461
2023-03-27T05:33:33.785Z,874.7692
2023-03-27T05:34:35.496Z,953.9231
2023-03-27T05:35:37.125Z,991.0000
2023-03-27T05:36:38.773Z,1019.4615
2023-03-27T05:37:40.405Z,1069.3846
2023-03-27T05:38:42.064Z,1132.8462
2023-03-27T05:39:43.732Z,1123.3846
2023-03-27T05:40:45.374Z,1055.7693
2023-03-27T05:41:47.005Z,990.5385
2023-03-27T05:42:48.674Z,941.3077
2023-03-27T05:43:51.241Z,914.4615
2023-03-27T05:44:51.996Z,897.4615
2023-03-27T05:45:53.626Z,875.3077
2023-03-27T05:46:55.291Z,874.9231
2023-03-27T05:47:56.991Z,868.9231
2023-03-27T05:48:58.592Z,871.6154
2023-03-27T05:50:00.249Z,864.3077
2023-03-27T05:51:01.903Z,854.6154
2023-03-27T05:52:03.510Z,863.0000
2023-03-27T05:53:05.200Z,867.6154
2023-03-27T05:54:06.809Z,878.4615
2023-03-27T05:55:08.523Z,895.3846
2023-03-27T05:56:10.116Z,903.0769
2023-03-27T05:57:11.914Z,903.4615
2023-03-27T05:58:13.462Z,908.3846
2023-03-27T05:59:15.077Z,904.1539
2023-03-27T06:00:16.762Z,891.0000
2023-03-27T06:01:18.388Z,884.3077
2023-03-27T06:02:21.517Z,887.2308
2023-03-27T06:03:21.876Z,894.9231
2023-03-27T06:04:23.358Z,891.1539
2023-03-27T06:05:25.023Z,883.5385
2023-03-27T06:06:26.637Z,879.4615
2023-03-27T06:07:28.305Z,898.4615
2023-03-27T06:08:29.933Z,893.5385
2023-03-27T06:09:31.583Z,881.3077
2023-03-27T06:10:33.250Z,866.6923
2023-03-27T06:11:34.889Z,864.0769
2023-03-27T06:12:36.526Z,849.1539
2023-03-27T06:13:38.260Z,849.0000
2023-03-27T06:14:39.906Z,849.3077
2023-03-27T06:15:41.635Z,849.5385
2023-03-27T06:16:43.201Z,847.6923
2023-03-27T06:17:44.894Z,848.4615
2023-03-27T06:18:46.498Z,849.0769
2023-03-27T06:19:48.184Z,840.0000
2023-03-27T06:20:49.815Z,843.6154
2023-03-27T06:21:51.460Z,846.2308
2023-03-27T06:22:53.104Z,836.1539
2023-03-27T06:23:54.763Z,843.3846
2023-03-27T06:24:56.389Z,844.0000
2023-03-27T06:25:58.378Z,845.1539
2023-03-27T06:26:59.691Z,842.6923
2023-03-27T06:28:01.364Z,846.7692
2023-03-27T06:29:08.142Z,846.3077
2023-03-27T06:30:04.676Z,844.2308
2023-03-27T06:31:06.355Z,853.0769
2023-03-27T06:32:07.981Z,849.8461
2023-03-27T06:33:09.621Z,849.4615
2023-03-27T06:34:11.284Z,849.9231
2023-03-27T06:35:12.896Z,852.6923
2023-03-27T06:36:14.625Z,855.0000
2023-03-27T06:37:16.181Z,853.3846
2023-03-27T06:38:17.862Z,852.1539
2023-03-27T06:39:19.479Z,840.6154
2023-03-27T06:40:21.139Z,847.3846
2023-03-27T06:41:22.802Z,845.8461
2023-03-27T06:42:24.445Z,843.2308
2023-03-27T06:43:26.075Z,839.6923
2023-03-27T06:44:27.738Z,839.6154
2023-03-27T06:45:29.393Z,841.2308
2023-03-27T06:46:42.688Z,834.8461
2023-03-27T06:47:36.382Z,841.3846
2023-03-27T06:48:34.366Z,840.1539
2023-03-27T06:49:35.975Z,836.3077
2023-03-27T06:50:37.629Z,832.5385
2023-03-27T06:51:39.281Z,831.6154
2023-03-27T06:52:40.928Z,836.0769
2023-03-27T06:53:42.558Z,829.1539
2023-03-27T06:54:44.216Z,832.7692
2023-03-27T06:55:45.868Z,830.3077
2023-03-27T06:56:47.610Z,831.8461
2023-03-27T06:57:49.166Z,832.0769
2023-03-27T06:58:50.836Z,832.6154
2023-03-27T06:59:52.488Z,833.6923
2023-03-27T07:00:54.129Z,826.6154
2023-03-27T07:01:55.830Z,825.7692
2023-03-27T07:02:57.420Z,821.8461
2023-03-27T07:03:59.065Z,829.6923
2023-03-27T07:05:04.649Z,824.5385
2023-03-27T07:06:02.556Z,824.4615
2023-03-27T07:07:04.049Z,821.3846
2023-03-27T07:08:18.997Z,823.4615
2023-03-27T07:09:07.318Z,820.7692
2023-03-27T07:10:08.962Z,824.2308
2023-03-27T07:11:12.266Z,826.4615
2023-03-27T07:12:12.278Z,826.7692
2023-03-27T07:13:13.919Z,827.6154
2023-03-27T07:14:15.589Z,825.1539
2023-03-27T07:15:17.295Z,821.0000
2023-03-27T07:16:18.892Z,823.5385
2023-03-27T07:17:20.532Z,824.3077
2023-03-27T07:18:22.216Z,830.0000
2023-03-27T07:19:23.822Z,831.1539
2023-03-27T07:20:25.473Z,824.3077
2023-03-27T07:21:27.137Z,827.3077
2023-03-27T07:22:28.799Z,828.1539
2023-03-27T07:23:30.435Z,826.2308
2023-03-27T07:24:32.060Z,826.4615
2023-03-27T07:25:33.744Z,829.0769
2023-03-27T07:26:35.354Z,826.0769
2023-03-27T07:27:37.063Z,827.8461
2023-03-27T07:28:38.729Z,828.2308
2023-03-27T07:29:40.337Z,831.4615
2023-03-27T07:30:41.983Z,833.6154
2023-03-27T07:31:57.525Z,829.6923
2023-03-27T07:32:45.408Z,829.3846
2023-03-27T07:33:47.068Z,824.0769
2023-03-27T07:34:48.579Z,827.3077
2023-03-27T07:35:50.256Z,829.1539
2023-03-27T07:36:51.894Z,825.5385
2023-03-27T07:37:53.579Z,830.1539
2023-03-27T07:38:55.184Z,826.4615
2023-03-27T07:39:56.847Z,827.7692
2023-03-27T07:40:58.504Z,826.0000
2023-03-27T07:42:00.164Z,826.6154
2023-03-27T07:43:01.834Z,823.3846
2023-03-27T07:44:03.464Z,820.7692
2023-03-27T07:45:05.090Z,826.1539
2023-03-27T07:46:06.803Z,832.7692
2023-03-27T07:47:08.397Z,822.7692
2023-03-27T07:48:10.087Z,825.6923
2023-03-27T07:49:11.685Z,829.5385
2023-03-27T07:50:13.380Z,826.4615
2023-03-27T07:51:14.982Z,832.6154
2023-03-27T07:52:16.738Z,833.2308
2023-03-27T07:53:32.806Z,848.6923
2023-03-27T07:54:19.945Z,840.3077
2023-03-27T07:55:21.582Z,845.3077
2023-03-27T07:56:23.276Z,851.7692
2023-03-27T07:57:25.041Z,832.5385
2023-03-27T07:58:26.857Z,821.5385
2023-03-27T07:59:28.197Z,827.6923
2023-03-27T08:00:29.980Z,827.8461
2023-03-27T08:01:31.480Z,829.4615
2023-03-27T08:02:33.188Z,830.0000
2023-03-27T08:03:34.922Z,835.9231
2023-03-27T08:04:36.584Z,833.3846
2023-03-27T08:05:38.080Z,830.5385
2023-03-27T08:06:39.751Z,833.3846
2023-03-27T08:07:41.389Z,834.6154
2023-03-27T08:08:43.092Z,828.2308
2023-03-27T08:09:44.697Z,831.5385
2023-03-27T08:10:46.361Z,829.8461
2023-03-27T08:11:48.010Z,832.8461
2023-03-27T08:12:49.668Z,830.3846
2023-03-27T08:13:51.330Z,835.0769
2023-03-27T08:14:52.968Z,825.6923
2023-03-27T08:15:54.750Z,822.6923
2023-03-27T08:17:08.648Z,826.3846
2023-03-27T08:17:57.937Z,831.2308
2023-03-27T08:18:59.640Z,830.3846
2023-03-27T08:20:01.226Z,834.5385
2023-03-27T08:21:02.957Z,833.2308
2023-03-27T08:22:04.501Z,827.9231
2023-03-27T08:23:06.191Z,821.9231
2023-03-27T08:24:07.833Z,825.0769
2023-03-27T08:25:09.502Z,832.4615
2023-03-27T08:26:11.101Z,835.0000
2023-03-27T08:27:12.798Z,842.4615
2023-03-27T08:28:14.433Z,841.3846
2023-03-27T08:29:16.138Z,835.8461
2023-03-27T08:30:17.794Z,834.3846
2023-03-27T08:31:19.487Z,829.4615
2023-03-27T08:32:21.035Z,832.3846
2023-03-27T08:33:22.739Z,837.2308
2023-03-27T08:34:24.397Z,824.0769
2023-03-27T08:35:26.026Z,827.5385
2023-03-27T08:36:27.632Z,831.9231
2023-03-27T08:37:29.265Z,829.4615
2023-03-27T08:38:30.964Z,830.4615
2023-03-27T08:39:32.630Z,823.8461
2023-03-27T08:40:34.219Z,828.6923
2023-03-27T08:41:35.882Z,834.4615
2023-03-27T08:42:37.556Z,830.3077
2023-03-27T08:43:39.142Z,833.9231
2023-03-27T08:44:40.873Z,828.9231
2023-03-27T08:45:42.470Z,833.4615
2023-03-27T08:46:44.136Z,828.4615
2023-03-27T08:48:48.556Z,830.9231
2023-03-27T08:49:50.144Z,822.8461
2023-03-27T08:50:51.817Z,826.3846
2023-03-27T08:51:53.406Z,827.6154
2023-03-27T08:52:55.059Z,826.3077
2023-03-27T08:53:56.719Z,827.0000
2023-03-27T08:54:58.502Z,828.0769
2023-03-27T08:56:00.003Z,824.6923
2023-03-27T08:57:01.759Z,821.3846
2023-03-27T08:58:03.334Z,816.4615
2023-03-27T08:59:04.992Z,821.0769
2023-03-27T09:00:06.650Z,830.3077
2023-03-27T09:01:08.301Z,827.8461
2023-03-27T09:02:09.989Z,822.2308
2023-03-27T09:03:11.721Z,831.8461
2023-03-27T09:04:13.218Z,834.2308
2023-03-27T09:05:14.931Z,831.1539
2023-03-27T09:06:16.567Z,830.0769
2023-03-27T09:07:18.188Z,824.7692
2023-03-27T09:08:19.804Z,824.0000
2023-03-27T09:09:21.461Z,823.7692
2023-03-27T09:10:23.199Z,825.0769
2023-03-27T09:11:24.804Z,824.5385
2023-03-27T09:12:26.430Z,826.0769
2023-03-27T09:13:28.027Z,829.6154
2023-03-27T09:14:29.686Z,830.2308
2023-03-27T09:15:31.384Z,828.8461
2023-03-27T09:16:33.122Z,825.1539
2023-03-27T09:17:34.683Z,829.6923
2023-03-27T09:18:36.316Z,827.9231
2023-03-27T09:19:37.947Z,833.3846
2023-03-27T09:20:39.662Z,834.0000
2023-03-27T09:21:41.229Z,825.9231
2023-03-27T09:22:42.904Z,828.0769
2023-03-27T09:23:44.523Z,828.2308
2023-03-27T09:24:46.236Z,829.8461
2023-03-27T09:25:47.926Z,825.0769
2023-03-27T09:27:01.072Z,820.0000
2023-03-27T09:27:51.132Z,826.0000
2023-03-27T09:28:52.806Z,824.0769
2023-03-27T09:30:05.960Z,823.6154
2023-03-27T09:30:56.226Z,821.5833
2023-03-27T09:31:57.744Z,822.3077
2023-03-27T09:32:59.448Z,825.1539
2023-03-27T09:34:01.001Z,823.3077
2023-03-27T09:35:02.752Z,820.3077
2023-03-27T09:36:04.460Z,823.1539
2023-03-27T09:37:06.056Z,813.9231
2023-03-27T09:38:07.640Z,815.7692
2023-03-27T09:39:09.314Z,812.6923
2023-03-27T09:40:10.954Z,820.0769
2023-03-27T09:41:12.634Z,824.6923
2023-03-27T09:42:14.238Z,816.6154
2023-03-27T09:43:15.920Z,823.5385
2023-03-27T09:44:17.596Z,826.4615
2023-03-27T09:45:19.301Z,826.9231
2023-03-27T09:46:20.933Z,822.8461
2023-03-27T09:47:22.520Z,822.3846
2023-03-27T09:48:24.185Z,819.8461
2023-03-27T09:49:25.814Z,821.9231
2023-03-27T09:50:27.945Z,832.0000
2023-03-27T09:51:29.269Z,830.0000
2023-03-27T09:52:30.711Z,826.7692
2023-03-27T09:53:32.434Z,825.4615
2023-03-27T09:54:34.058Z,823.7692
2023-03-27T09:55:35.717Z,818.1539
2023-03-27T09:56:37.392Z,822.2308
2023-03-27T09:57:39.077Z,824.7692
2023-03-27T09:58:40.678Z,824.6154
2023-03-27T09:59:42.307Z,821.8461
2023-03-27T10:00:44.031Z,822.0000
2023-03-27T10:01:45.632Z,825.6154
2023-03-27T10:02:47.297Z,826.2308
2023-03-27T10:03:49.108Z,821.9231
2023-03-27T10:04:50.548Z,827.0000
2023-03-27T10:05:52.216Z,826.2308
2023-03-27T10:06:53.852Z,822.0769
2023-03-27T10:07:55.522Z,825.7692
2023-03-27T10:08:57.165Z,828.4615
2023-03-27T10:09:58.836Z,829.2308
2023-03-27T10:11:00.485Z,820.0000
2023-03-27T10:12:02.190Z,813.3846
2023-03-27T10:13:03.767Z,814.6154
2023-03-27T10:14:05.454Z,816.5385
2023-03-27T10:15:07.112Z,825.2308
2023-03-27T10:16:08.837Z,823.7692
2023-03-27T10:17:10.450Z,821.4615
2023-03-27T10:18:12.199Z,820.7692
2023-03-27T10:19:13.855Z,815.1539
2023-03-27T10:20:15.491Z,817.7692
2023-03-27T10:21:17.100Z,819.3077
2023-03-27T10:22:18.766Z,812.5385
2023-03-27T10:23:20.359Z,816.0000
2023-03-27T10:24:22.005Z,808.6923
2023-03-27T10:25:23.678Z,807.6923
2023-03-27T10:26:25.343Z,806.0769
2023-03-27T10:27:26.976Z,808.8461
2023-03-27T10:28:28.609Z,811.9231
2023-03-27T10:29:30.262Z,809.9231
2023-03-27T10:30:31.912Z,801.2308
2023-03-27T10:31:33.588Z,798.6923
2023-03-27T10:32:35.268Z,805.9231
2023-03-27T10:33:36.885Z,806.7692
2023-03-27T10:34:38.517Z,830.6154
2023-03-27T10:35:40.179Z,835.3846
2023-03-27T10:36:41.842Z,810.6923
2023-03-27T10:37:49.773Z,811.1539
2023-03-27T10:38:45.132Z,811.9167
2023-03-27T10:39:46.756Z,813.6154
2023-03-27T10:40:48.426Z,812.4615
2023-03-27T10:41:50.067Z,813.3846
2023-03-27T10:42:51.782Z,811.0000
2023-03-27T10:43:53.360Z,809.7692
2023-03-27T10:44:55.030Z,811.0000
2023-03-27T10:45:56.764Z,811.9231
2023-03-27T10:46:58.347Z,817.1539
2023-03-27T10:48:00.038Z,811.6923
2023-03-27T10:49:01.635Z,810.8461
2023-03-27T10:50:03.267Z,811.2308
2023-03-27T10:51:04.945Z,806.0769
2023-03-27T10:52:06.560Z,815.6923
2023-03-27T10:53:08.336Z,816.3077
2023-03-27T10:54:09.902Z,813.5385
2023-03-27T10:55:11.537Z,809.4615
2023-03-27T10:56:13.176Z,810.4615
2023-03-27T10:57:14.868Z,812.6923
2023-03-27T10:58:16.481Z,817.0000
2023-03-27T10:59:21.509Z,813.0000
2023-03-27T11:00:19.763Z,814.0000
2023-03-27T11:01:21.505Z,810.4615
2023-03-27T11:02:23.115Z,806.4615
2023-03-27T11:03:24.807Z,813.6923
2023-03-27T11:04:26.378Z,807.8461
2023-03-27T11:05:28.092Z,808.9231
2023-03-27T11:06:29.698Z,814.6154
2023-03-27T11:07:31.369Z,813.3077
2023-03-27T11:08:33.062Z,803.8461
2023-03-27T11:09:34.708Z,799.8461
2023-03-27T11:10:36.320Z,811.7692
2023-03-27T11:11:38.031Z,808.2308
2023-03-27T11:12:39.608Z,810.1539
2023-03-27T11:13:41.279Z,801.5385
2023-03-27T11:14:42.917Z,803.0000
2023-03-27T11:15:44.608Z,805.6154
2023-03-27T11:16:46.242Z,813.0769
2023-03-27T11:17:47.905Z,807.2308
2023-03-27T11:18:49.573Z,808.3077
2023-03-27T11:19:51.176Z,805.6154
2023-03-27T11:20:52.789Z,818.3077
2023-03-27T11:21:54.485Z,817.4615
2023-03-27T11:22:56.138Z,812.7692
2023-03-27T11:23:57.926Z,821.3846
2023-03-27T11:24:59.429Z,815.8461
2023-03-27T11:26:01.075Z,809.3077
2023-03-27T11:27:02.754Z,812.1539
2023-03-27T11:28:04.444Z,813.4615
2023-03-27T11:29:06.059Z,810.3846
2023-03-27T11:30:07.705Z,814.8461
2023-03-27T11:31:12.112Z,815.0769
2023-03-27T11:32:10.995Z,812.2308
2023-03-27T11:33:12.608Z,816.1539
2023-03-27T11:34:14.345Z,816.3846
2023-03-27T11:35:15.923Z,822.0833
2023-03-27T11:36:17.619Z,822.3846
2023-03-27T11:37:19.217Z,821.2308
2023-03-27T11:38:20.911Z,816.9231
2023-03-27T11:39:22.626Z,818.0000
2023-03-27T11:40:24.232Z,820.3846
2023-03-27T11:41:25.847Z,822.8461
2023-03-27T11:42:27.604Z,820.3077
2023-03-27T11:43:29.135Z,815.0769
2023-03-27T11:44:30.847Z,813.6154
2023-03-27T11:45:32.452Z,818.3077
2023-03-27T11:46:34.168Z,815.9231
2023-03-27T11:47:35.759Z,810.3846
2023-03-27T11:48:37.394Z,818.1539
2023-03-27T11:49:39.141Z,820.6923
2023-03-27T11:50:40.750Z,821.0769
2023-03-27T11:51:42.403Z,826.9231
2023-03-27T11:52:43.997Z,820.3846
2023-03-27T11:53:45.684Z,819.9231
2023-03-27T11:54:47.379Z,816.3846
2023-03-27T11:55:49.008Z,819.3077
2023-03-27T11:56:50.643Z,813.4615